sensor_id;sensor_type;location;lat;lon;timestamp;P1;durP1;ratioP1;P2;durP2;ratioP2
6173;SDS011;3120;48.796;9.796;2024-03-06T02:04:17;36.55;;;22.17;;
6173;SDS011;3120;48.796;9.796;2024-03-06T02:06:45;35.88;;;22.30;;
6173;SDS011;3120;48.796;9.796;2024-03-06T02:09:11;31.38;;;21.63;;
6173;SDS011;3120;48.796;9.796;2024-03-06T02:11:39;34.28;;;20.58;;
6173;SDS011;3120;48.796;9.796;2024-03-06T02:14:05;36.75;;;22.48;;
6173;SDS011;3120;48.796;9.796;2024-03-06T02:16:34;38.58;;;24.02;;
6173;SDS011;3120;48.796;9.796;2024-03-06T02:19:01;35.92;;;23.40;;
6173;SDS011;3120;48.796;9.796;2024-03-06T02:21:26;37.40;;;23.80;;
6173;SDS011;3120;48.796;9.796;2024-03-06T02:23:52;35.55;;;22.67;;
6173;SDS011;3120;48.796;9.796;2024-03-06T02:26:19;34.13;;;22.20;;
6173;SDS011;3120;48.796;9.796;2024-03-06T02:28:48;34.35;;;21.17;;
6173;SDS011;3120;48.796;9.796;2024-03-06T02:31:18;37.97;;;22.85;;
6173;SDS011;3120;48.796;9.796;2024-03-06T02:33:45;31.15;;;20.73;;
6173;SDS011;3120;48.796;9.796;2024-03-06T02:36:15;36.25;;;23.02;;
6173;SDS011;3120;48.796;9.796;2024-03-06T02:38:44;45.28;;;25.55;;
6173;SDS011;3120;48.796;9.796;2024-03-06T02:41:11;37.08;;;24.17;;
6173;SDS011;3120;48.796;9.796;2024-03-06T02:43:39;39.45;;;23.70;;
6173;SDS011;3120;48.796;9.796;2024-03-06T02:46:04;37.33;;;24.98;;
6173;SDS011;3120;48.796;9.796;2024-03-06T02:48:30;32.35;;;20.52;;
6173;SDS011;3120;48.796;9.796;2024-03-06T02:50:56;34.00;;;21.65;;
6173;SDS011;3120;48.796;9.796;2024-03-06T02:53:21;34.97;;;22.98;;
6173;SDS011;3120;48.796;9.796;2024-03-06T02:55:47;37.20;;;23.02;;
6173;SDS011;3120;48.796;9.796;2024-03-06T02:58:13;37.28;;;21.77;;
6173;SDS011;3120;48.796;9.796;2024-03-06T03:00:39;39.70;;;23.20;;
6173;SDS011;3120;48.796;9.796;2024-03-06T03:03:06;43.40;;;23.65;;
6173;SDS011;3120;48.796;9.796;2024-03-06T03:05:31;48.10;;;27.95;;
6173;SDS011;3120;48.796;9.796;2024-03-06T03:07:58;34.22;;;24.00;;
6173;SDS011;3120;48.796;9.796;2024-03-06T03:10:24;38.42;;;24.58;;
6173;SDS011;3120;48.796;9.796;2024-03-06T03:12:50;36.35;;;24.42;;
6173;SDS011;3120;48.796;9.796;2024-03-06T03:15:16;35.47;;;22.85;;
6173;SDS011;3120;48.796;9.796;2024-03-06T03:17:41;39.83;;;22.17;;
6173;SDS011;3120;48.796;9.796;2024-03-06T03:20:07;33.00;;;18.92;;
6173;SDS011;3120;48.796;9.796;2024-03-06T03:22:36;31.17;;;18.98;;
6173;SDS011;3120;48.796;9.796;2024-03-06T03:25:03;30.80;;;20.50;;
6173;SDS011;3120;48.796;9.796;2024-03-06T03:27:32;39.83;;;22.98;;
6173;SDS011;3120;48.796;9.796;2024-03-06T03:29:58;35.72;;;21.33;;
6173;SDS011;3120;48.796;9.796;2024-03-06T03:32:23;31.55;;;19.13;;
6173;SDS011;3120;48.796;9.796;2024-03-06T03:34:49;31.65;;;19.40;;
6173;SDS011;3120;48.796;9.796;2024-03-06T03:37:15;33.20;;;19.70;;
6173;SDS011;3120;48.796;9.796;2024-03-06T03:39:40;26.67;;;18.70;;
6173;SDS011;3120;48.796;9.796;2024-03-06T03:42:08;32.75;;;20.40;;
6173;SDS011;3120;48.796;9.796;2024-03-06T03:44:33;32.70;;;20.27;;
6173;SDS011;3120;48.796;9.796;2024-03-06T03:46:59;34.47;;;22.02;;
6173;SDS011;3120;48.796;9.796;2024-03-06T03:49:25;49.25;;;26.88;;
6173;SDS011;3120;48.796;9.796;2024-03-06T03:51:50;54.40;;;29.45;;
6173;SDS011;3120;48.796;9.796;2024-03-06T03:54:16;51.55;;;30.42;;
6173;SDS011;3120;48.796;9.796;2024-03-06T03:56:42;49.60;;;30.10;;
6173;SDS011;3120;48.796;9.796;2024-03-06T03:59:08;50.33;;;30.60;;
6173;SDS011;3120;48.796;9.796;2024-03-06T04:01:33;52.38;;;30.92;;
6173;SDS011;3120;48.796;9.796;2024-03-06T04:03:59;54.90;;;31.73;;
6173;SDS011;3120;48.796;9.796;2024-03-06T04:06:24;45.95;;;27.92;;
6173;SDS011;3120;48.796;9.796;2024-03-06T04:08:50;37.67;;;24.38;;
6173;SDS011;3120;48.796;9.796;2024-03-06T04:11:16;39.03;;;23.92;;
6173;SDS011;3120;48.796;9.796;2024-03-06T04:13:41;35.72;;;23.58;;
6173;SDS011;3120;48.796;9.796;2024-03-06T04:16:07;31.05;;;20.33;;
6173;SDS011;3120;48.796;9.796;2024-03-06T04:18:33;37.42;;;22.23;;
6173;SDS011;3120;48.796;9.796;2024-03-06T04:21:01;36.83;;;19.25;;
6173;SDS011;3120;48.796;9.796;2024-03-06T04:23:29;36.22;;;21.45;;
6173;SDS011;3120;48.796;9.796;2024-03-06T04:25:55;36.72;;;19.33;;
6173;SDS011;3120;48.796;9.796;2024-03-06T04:28:20;38.35;;;22.33;;
6173;SDS011;3120;48.796;9.796;2024-03-06T04:30:46;31.60;;;18.75;;
6173;SDS011;3120;48.796;9.796;2024-03-06T04:33:12;37.65;;;21.02;;
6173;SDS011;3120;48.796;9.796;2024-03-06T04:35:40;40.00;;;24.95;;
6173;SDS011;3120;48.796;9.796;2024-03-06T04:38:05;38.90;;;25.85;;
6173;SDS011;3120;48.796;9.796;2024-03-06T04:40:31;47.53;;;30.88;;
6173;SDS011;3120;48.796;9.796;2024-03-06T04:42:57;55.83;;;33.38;;
6173;SDS011;3120;48.796;9.796;2024-03-06T04:45:22;46.63;;;26.38;;
6173;SDS011;3120;48.796;9.796;2024-03-06T04:47:48;40.65;;;27.23;;
6173;SDS011;3120;48.796;9.796;2024-03-06T04:50:14;37.08;;;23.23;;
6173;SDS011;3120;48.796;9.796;2024-03-06T04:52:40;42.85;;;27.38;;
6173;SDS011;3120;48.796;9.796;2024-03-06T04:55:06;42.65;;;28.17;;
6173;SDS011;3120;48.796;9.796;2024-03-06T04:57:35;47.95;;;29.42;;
6173;SDS011;3120;48.796;9.796;2024-03-06T05:00:01;48.30;;;29.27;;
6173;SDS011;3120;48.796;9.796;2024-03-06T05:02:30;62.35;;;34.35;;
6173;SDS011;3120;48.796;9.796;2024-03-06T05:05:00;47.80;;;30.40;;
6173;SDS011;3120;48.796;9.796;2024-03-06T05:07:27;52.83;;;32.17;;
6173;SDS011;3120;48.796;9.796;2024-03-06T05:09:56;47.60;;;29.02;;
6173;SDS011;3120;48.796;9.796;2024-03-06T05:12:23;46.72;;;28.30;;
6173;SDS011;3120;48.796;9.796;2024-03-06T05:14:50;49.42;;;31.50;;
6173;SDS011;3120;48.796;9.796;2024-03-06T05:17:16;42.33;;;25.90;;
6173;SDS011;3120;48.796;9.796;2024-03-06T05:19:42;35.03;;;23.75;;
6173;SDS011;3120;48.796;9.796;2024-03-06T05:22:09;38.80;;;25.17;;
6173;SDS011;3120;48.796;9.796;2024-03-06T05:24:36;42.38;;;26.88;;
6173;SDS011;3120;48.796;9.796;2024-03-06T05:27:02;33.50;;;23.10;;
6173;SDS011;3120;48.796;9.796;2024-03-06T05:29:28;30.25;;;20.48;;
6173;SDS011;3120;48.796;9.796;2024-03-06T05:31:53;37.65;;;21.95;;
6173;SDS011;3120;48.796;9.796;2024-03-06T05:34:20;40.38;;;25.58;;
6173;SDS011;3120;48.796;9.796;2024-03-06T05:36:49;41.08;;;28.52;;
6173;SDS011;3120;48.796;9.796;2024-03-06T05:39:15;35.30;;;24.23;;
6173;SDS011;3120;48.796;9.796;2024-03-06T05:41:42;38.58;;;24.02;;
6173;SDS011;3120;48.796;9.796;2024-03-06T05:44:08;31.95;;;22.30;;
6173;SDS011;3120;48.796;9.796;2024-03-06T05:46:33;38.40;;;22.60;;
6173;SDS011;3120;48.796;9.796;2024-03-06T05:48:59;37.00;;;23.90;;
6173;SDS011;3120;48.796;9.796;2024-03-06T05:51:26;33.92;;;23.60;;
6173;SDS011;3120;48.796;9.796;2024-03-06T06:04:07;41.60;;;25.40;;
6173;SDS011;3120;48.796;9.796;2024-03-06T06:06:42;36.10;;;24.60;;
6173;SDS011;3120;48.796;9.796;2024-03-06T06:09:34;40.70;;;25.80;;
6173;SDS011;3120;48.796;9.796;2024-03-06T06:12:00;39.60;;;26.50;;
6173;SDS011;3120;48.796;9.796;2024-03-06T06:14:25;39.53;;;23.58;;
6173;SDS011;3120;48.796;9.796;2024-03-06T06:16:54;34.90;;;23.35;;
6173;SDS011;3120;48.796;9.796;2024-03-06T06:19:20;38.70;;;25.92;;
6173;SDS011;3120;48.796;9.796;2024-03-06T06:21:45;42.42;;;27.33;;
6173;SDS011;3120;48.796;9.796;2024-03-06T06:24:12;38.95;;;25.13;;
6173;SDS011;3120;48.796;9.796;2024-03-06T06:26:38;42.70;;;26.85;;
6173;SDS011;3120;48.796;9.796;2024-03-06T06:29:04;35.85;;;25.17;;
6173;SDS011;3120;48.796;9.796;2024-03-06T06:31:30;38.15;;;25.00;;
6173;SDS011;3120;48.796;9.796;2024-03-06T06:33:56;40.47;;;25.75;;
6173;SDS011;3120;48.796;9.796;2024-03-06T06:36:22;43.05;;;25.23;;
6173;SDS011;3120;48.796;9.796;2024-03-06T06:38:48;44.83;;;27.00;;
6173;SDS011;3120;48.796;9.796;2024-03-06T06:41:14;40.17;;;25.75;;
6173;SDS011;3120;48.796;9.796;2024-03-06T06:43:40;39.08;;;24.90;;
6173;SDS011;3120;48.796;9.796;2024-03-06T06:46:06;46.65;;;26.92;;
6173;SDS011;3120;48.796;9.796;2024-03-06T06:48:32;37.42;;;23.98;;
6173;SDS011;3120;48.796;9.796;2024-03-06T06:50:59;34.70;;;22.33;;
6173;SDS011;3120;48.796;9.796;2024-03-06T06:53:26;39.38;;;24.45;;
6173;SDS011;3120;48.796;9.796;2024-03-06T06:55:51;38.45;;;25.33;;
6173;SDS011;3120;48.796;9.796;2024-03-06T06:58:17;43.63;;;27.35;;
6173;SDS011;3120;48.796;9.796;2024-03-06T07:00:43;39.47;;;25.67;;
6173;SDS011;3120;48.796;9.796;2024-03-06T07:03:08;38.10;;;25.40;;
6173;SDS011;3120;48.796;9.796;2024-03-06T07:05:34;46.08;;;26.77;;
6173;SDS011;3120;48.796;9.796;2024-03-06T07:07:59;38.08;;;25.90;;
6173;SDS011;3120;48.796;9.796;2024-03-06T07:10:25;42.88;;;27.08;;
6173;SDS011;3120;48.796;9.796;2024-03-06T07:12:51;42.83;;;26.15;;
6173;SDS011;3120;48.796;9.796;2024-03-06T07:15:17;35.70;;;23.92;;
6173;SDS011;3120;48.796;9.796;2024-03-06T07:17:42;43.40;;;26.25;;
6173;SDS011;3120;48.796;9.796;2024-03-06T07:20:08;37.92;;;24.90;;
6173;SDS011;3120;48.796;9.796;2024-03-06T07:22:35;40.47;;;25.15;;
6173;SDS011;3120;48.796;9.796;2024-03-06T07:25:01;42.33;;;25.33;;
6173;SDS011;3120;48.796;9.796;2024-03-06T07:27:27;36.95;;;22.95;;
6173;SDS011;3120;48.796;9.796;2024-03-06T07:29:53;41.60;;;24.50;;
6173;SDS011;3120;48.796;9.796;2024-03-06T07:32:18;41.65;;;26.63;;
6173;SDS011;3120;48.796;9.796;2024-03-06T07:34:44;40.58;;;25.52;;
6173;SDS011;3120;48.796;9.796;2024-03-06T07:37:10;38.83;;;24.33;;
6173;SDS011;3120;48.796;9.796;2024-03-06T07:39:36;36.50;;;23.50;;
6173;SDS011;3120;48.796;9.796;2024-03-06T07:42:01;34.63;;;22.92;;
6173;SDS011;3120;48.796;9.796;2024-03-06T07:44:27;37.42;;;23.42;;
6173;SDS011;3120;48.796;9.796;2024-03-06T07:46:53;34.30;;;22.95;;
6173;SDS011;3120;48.796;9.796;2024-03-06T07:49:19;38.33;;;23.73;;
6173;SDS011;3120;48.796;9.796;2024-03-06T07:51:46;43.75;;;25.83;;
6173;SDS011;3120;48.796;9.796;2024-03-06T07:54:12;39.20;;;24.23;;
6173;SDS011;3120;48.796;9.796;2024-03-06T07:56:38;35.95;;;23.52;;
6173;SDS011;3120;48.796;9.796;2024-03-06T07:59:04;51.45;;;25.85;;
6173;SDS011;3120;48.796;9.796;2024-03-06T08:01:30;50.25;;;26.25;;
6173;SDS011;3120;48.796;9.796;2024-03-06T08:03:56;46.35;;;26.13;;
6173;SDS011;3120;48.796;9.796;2024-03-06T08:06:22;53.20;;;27.98;;
6173;SDS011;3120;48.796;9.796;2024-03-06T08:08:48;42.97;;;29.08;;
6173;SDS011;3120;48.796;9.796;2024-03-06T08:11:14;45.45;;;29.77;;
6173;SDS011;3120;48.796;9.796;2024-03-06T08:13:40;41.80;;;24.83;;
6173;SDS011;3120;48.796;9.796;2024-03-06T08:16:06;39.55;;;25.85;;
6173;SDS011;3120;48.796;9.796;2024-03-06T08:18:32;50.10;;;30.10;;
6173;SDS011;3120;48.796;9.796;2024-03-06T08:20:58;49.60;;;30.30;;
6173;SDS011;3120;48.796;9.796;2024-03-06T08:23:24;46.88;;;28.60;;
6173;SDS011;3120;48.796;9.796;2024-03-06T08:25:50;47.85;;;28.63;;
6173;SDS011;3120;48.796;9.796;2024-03-06T08:28:16;41.78;;;26.60;;
6173;SDS011;3120;48.796;9.796;2024-03-06T08:30:42;46.13;;;23.98;;
6173;SDS011;3120;48.796;9.796;2024-03-06T08:33:09;43.63;;;28.10;;
6173;SDS011;3120;48.796;9.796;2024-03-06T08:35:35;46.10;;;28.50;;
6173;SDS011;3120;48.796;9.796;2024-03-06T08:38:00;46.10;;;29.83;;
6173;SDS011;3120;48.796;9.796;2024-03-06T08:40:26;47.30;;;27.25;;
6173;SDS011;3120;48.796;9.796;2024-03-06T08:42:53;46.10;;;26.13;;
6173;SDS011;3120;48.796;9.796;2024-03-06T08:45:19;52.58;;;30.75;;
6173;SDS011;3120;48.796;9.796;2024-03-06T08:47:45;50.55;;;30.45;;
6173;SDS011;3120;48.796;9.796;2024-03-06T08:50:12;44.35;;;27.63;;
6173;SDS011;3120;48.796;9.796;2024-03-06T08:52:38;38.15;;;22.88;;
6173;SDS011;3120;48.796;9.796;2024-03-06T08:55:04;42.13;;;25.98;;
6173;SDS011;3120;48.796;9.796;2024-03-06T08:57:33;38.38;;;24.75;;
6173;SDS011;3120;48.796;9.796;2024-03-06T09:00:03;43.92;;;26.60;;
6173;SDS011;3120;48.796;9.796;2024-03-06T09:02:29;32.40;;;19.15;;
6173;SDS011;3120;48.796;9.796;2024-03-06T09:04:55;37.65;;;24.42;;
6173;SDS011;3120;48.796;9.796;2024-03-06T09:07:21;38.67;;;22.58;;
6173;SDS011;3120;48.796;9.796;2024-03-06T09:09:50;39.33;;;25.50;;
6173;SDS011;3120;48.796;9.796;2024-03-06T09:12:16;39.40;;;25.27;;
6173;SDS011;3120;48.796;9.796;2024-03-06T09:14:42;40.95;;;26.23;;
6173;SDS011;3120;48.796;9.796;2024-03-06T09:17:08;40.53;;;24.40;;
6173;SDS011;3120;48.796;9.796;2024-03-06T09:19:34;41.97;;;23.65;;
6173;SDS011;3120;48.796;9.796;2024-03-06T09:22:00;39.97;;;25.13;;
6173;SDS011;3120;48.796;9.796;2024-03-06T09:24:26;40.85;;;25.27;;
6173;SDS011;3120;48.796;9.796;2024-03-06T09:26:51;37.63;;;23.10;;
6173;SDS011;3120;48.796;9.796;2024-03-06T09:29:18;45.88;;;27.17;;
6173;SDS011;3120;48.796;9.796;2024-03-06T09:31:44;43.15;;;25.52;;
6173;SDS011;3120;48.796;9.796;2024-03-06T09:34:10;36.63;;;22.58;;
6173;SDS011;3120;48.796;9.796;2024-03-06T09:36:37;40.10;;;24.38;;
6173;SDS011;3120;48.796;9.796;2024-03-06T09:39:03;40.83;;;23.92;;
6173;SDS011;3120;48.796;9.796;2024-03-06T09:41:33;41.25;;;26.30;;
6173;SDS011;3120;48.796;9.796;2024-03-06T09:43:59;40.28;;;23.60;;
6173;SDS011;3120;48.796;9.796;2024-03-06T09:46:28;40.53;;;24.45;;
6173;SDS011;3120;48.796;9.796;2024-03-06T09:48:54;41.70;;;27.90;;
6173;SDS011;3120;48.796;9.796;2024-03-06T09:51:21;46.92;;;26.55;;
6173;SDS011;3120;48.796;9.796;2024-03-06T09:53:47;48.58;;;28.45;;
6173;SDS011;3120;48.796;9.796;2024-03-06T09:56:16;42.25;;;25.17;;
6173;SDS011;3120;48.796;9.796;2024-03-06T09:58:43;42.40;;;25.50;;
6173;SDS011;3120;48.796;9.796;2024-03-06T10:01:09;44.83;;;27.48;;
6173;SDS011;3120;48.796;9.796;2024-03-06T10:03:37;45.85;;;27.58;;
6173;SDS011;3120;48.796;9.796;2024-03-06T10:06:05;46.60;;;28.83;;
6173;SDS011;3120;48.796;9.796;2024-03-06T10:08:32;51.17;;;30.02;;
6173;SDS011;3120;48.796;9.796;2024-03-06T10:10:58;45.50;;;28.00;;
6173;SDS011;3120;48.796;9.796;2024-03-06T10:13:25;45.90;;;27.95;;
6173;SDS011;3120;48.796;9.796;2024-03-06T10:16:00;37.75;;;25.40;;
6173;SDS011;3120;48.796;9.796;2024-03-06T10:18:28;37.97;;;23.63;;
6173;SDS011;3120;48.796;9.796;2024-03-06T10:20:55;34.60;;;22.25;;
6173;SDS011;3120;48.796;9.796;2024-03-06T10:23:21;37.33;;;23.27;;
6173;SDS011;3120;48.796;9.796;2024-03-06T10:25:47;35.67;;;24.20;;
6173;SDS011;3120;48.796;9.796;2024-03-06T10:28:20;43.75;;;26.10;;
6173;SDS011;3120;48.796;9.796;2024-03-06T10:30:47;40.70;;;25.40;;
6173;SDS011;3120;48.796;9.796;2024-03-06T10:33:14;39.40;;;25.42;;
6173;SDS011;3120;48.796;9.796;2024-03-06T10:35:41;34.65;;;24.52;;
6173;SDS011;3120;48.796;9.796;2024-03-06T10:38:08;35.17;;;22.58;;
6173;SDS011;3120;48.796;9.796;2024-03-06T10:40:36;41.20;;;24.80;;
6173;SDS011;3120;48.796;9.796;2024-03-06T10:43:04;33.67;;;20.90;;
6173;SDS011;3120;48.796;9.796;2024-03-06T10:48:13;36.40;;;22.08;;
6173;SDS011;3120;48.796;9.796;2024-03-06T10:50:39;33.88;;;18.77;;
6173;SDS011;3120;48.796;9.796;2024-03-06T10:53:09;41.38;;;25.40;;
6173;SDS011;3120;48.796;9.796;2024-03-06T10:55:39;39.08;;;24.75;;
6173;SDS011;3120;48.796;9.796;2024-03-06T10:58:05;40.17;;;23.35;;
6173;SDS011;3120;48.796;9.796;2024-03-06T11:00:35;43.50;;;25.30;;
6173;SDS011;3120;48.796;9.796;2024-03-06T11:03:05;41.17;;;26.52;;
6173;SDS011;3120;48.796;9.796;2024-03-06T11:05:36;39.85;;;24.85;;
6173;SDS011;3120;48.796;9.796;2024-03-06T11:08:05;34.33;;;22.70;;
6173;SDS011;3120;48.796;9.796;2024-03-06T11:10:35;50.95;;;29.67;;
6173;SDS011;3120;48.796;9.796;2024-03-06T11:13:03;35.45;;;23.33;;
6173;SDS011;3120;48.796;9.796;2024-03-06T11:15:33;35.10;;;21.90;;
6173;SDS011;3120;48.796;9.796;2024-03-06T11:18:20;35.95;;;21.35;;
6173;SDS011;3120;48.796;9.796;2024-03-06T11:23:29;31.98;;;20.95;;
6173;SDS011;3120;48.796;9.796;2024-03-06T11:26:04;32.65;;;20.30;;
6173;SDS011;3120;48.796;9.796;2024-03-06T11:28:38;31.88;;;20.02;;
6173;SDS011;3120;48.796;9.796;2024-03-06T11:31:06;33.58;;;21.30;;
6173;SDS011;3120;48.796;9.796;2024-03-06T11:33:44;30.95;;;21.02;;
6173;SDS011;3120;48.796;9.796;2024-03-06T11:36:20;31.75;;;20.15;;
6173;SDS011;3120;48.796;9.796;2024-03-06T11:39:00;38.95;;;24.02;;
6173;SDS011;3120;48.796;9.796;2024-03-06T11:41:32;38.97;;;23.90;;
6173;SDS011;3120;48.796;9.796;2024-03-06T11:44:07;33.10;;;19.30;;
6173;SDS011;3120;48.796;9.796;2024-03-06T11:49:29;28.25;;;16.83;;
6173;SDS011;3120;48.796;9.796;2024-03-06T11:52:02;32.08;;;18.88;;
6173;SDS011;3120;48.796;9.796;2024-03-06T11:54:35;29.15;;;18.02;;
6173;SDS011;3120;48.796;9.796;2024-03-06T11:57:02;35.28;;;20.63;;
6173;SDS011;3120;48.796;9.796;2024-03-06T11:59:30;32.50;;;18.80;;
6173;SDS011;3120;48.796;9.796;2024-03-06T12:02:04;34.55;;;20.98;;
6173;SDS011;3120;48.796;9.796;2024-03-06T12:04:31;40.38;;;22.40;;
6173;SDS011;3120;48.796;9.796;2024-03-06T12:06:59;38.65;;;22.00;;
6173;SDS011;3120;48.796;9.796;2024-03-06T12:09:30;37.47;;;22.77;;
6173;SDS011;3120;48.796;9.796;2024-03-06T12:11:56;35.47;;;21.00;;
6173;SDS011;3120;48.796;9.796;2024-03-06T12:14:22;37.10;;;20.77;;
6173;SDS011;3120;48.796;9.796;2024-03-06T12:16:58;39.75;;;21.65;;
6173;SDS011;3120;48.796;9.796;2024-03-06T12:19:34;33.00;;;19.38;;
6173;SDS011;3120;48.796;9.796;2024-03-06T12:22:00;30.90;;;18.33;;
6173;SDS011;3120;48.796;9.796;2024-03-06T12:24:29;31.00;;;17.48;;
6173;SDS011;3120;48.796;9.796;2024-03-06T12:27:02;29.80;;;17.58;;
6173;SDS011;3120;48.796;9.796;2024-03-06T12:29:29;33.03;;;18.95;;
6173;SDS011;3120;48.796;9.796;2024-03-06T12:31:58;35.10;;;18.98;;
6173;SDS011;3120;48.796;9.796;2024-03-06T12:34:25;38.50;;;18.77;;
6173;SDS011;3120;48.796;9.796;2024-03-06T12:36:50;37.95;;;21.13;;
6173;SDS011;3120;48.796;9.796;2024-03-06T12:39:16;37.05;;;20.85;;
6173;SDS011;3120;48.796;9.796;2024-03-06T12:44:15;33.53;;;20.40;;
6173;SDS011;3120;48.796;9.796;2024-03-06T12:46:41;39.20;;;21.13;;
6173;SDS011;3120;48.796;9.796;2024-03-06T12:49:06;38.42;;;21.50;;
6173;SDS011;3120;48.796;9.796;2024-03-06T12:51:32;41.00;;;21.23;;
6173;SDS011;3120;48.796;9.796;2024-03-06T12:53:58;36.78;;;20.92;;
6173;SDS011;3120;48.796;9.796;2024-03-06T12:56:23;33.65;;;18.13;;
6173;SDS011;3120;48.796;9.796;2024-03-06T12:58:50;47.30;;;23.77;;
6173;SDS011;3120;48.796;9.796;2024-03-06T13:01:16;42.05;;;24.65;;
6173;SDS011;3120;48.796;9.796;2024-03-06T13:03:41;40.60;;;23.25;;
6173;SDS011;3120;48.796;9.796;2024-03-06T13:06:07;43.55;;;22.73;;
6173;SDS011;3120;48.796;9.796;2024-03-06T13:08:33;46.65;;;24.02;;
6173;SDS011;3120;48.796;9.796;2024-03-06T13:10:58;38.83;;;23.88;;
6173;SDS011;3120;48.796;9.796;2024-03-06T13:13:24;46.15;;;25.23;;
6173;SDS011;3120;48.796;9.796;2024-03-06T13:15:53;47.42;;;24.52;;
6173;SDS011;3120;48.796;9.796;2024-03-06T13:18:18;48.65;;;25.60;;
6173;SDS011;3120;48.796;9.796;2024-03-06T13:20:44;43.90;;;21.73;;
6173;SDS011;3120;48.796;9.796;2024-03-06T13:23:10;46.08;;;23.50;;
6173;SDS011;3120;48.796;9.796;2024-03-06T13:25:36;44.58;;;22.05;;
6173;SDS011;3120;48.796;9.796;2024-03-06T13:28:02;43.15;;;21.98;;
6173;SDS011;3120;48.796;9.796;2024-03-06T13:30:28;37.50;;;19.33;;
6173;SDS011;3120;48.796;9.796;2024-03-06T13:32:53;39.78;;;20.80;;
6173;SDS011;3120;48.796;9.796;2024-03-06T13:35:19;47.80;;;23.10;;
6173;SDS011;3120;48.796;9.796;2024-03-06T13:37:45;38.42;;;18.77;;
6173;SDS011;3120;48.796;9.796;2024-03-06T13:40:11;75.72;;;28.35;;
6173;SDS011;3120;48.796;9.796;2024-03-06T13:42:38;52.05;;;22.65;;
6173;SDS011;3120;48.796;9.796;2024-03-06T13:45:05;38.65;;;17.77;;
6173;SDS011;3120;48.796;9.796;2024-03-06T13:47:36;39.55;;;18.83;;
6173;SDS011;3120;48.796;9.796;2024-03-06T13:50:06;39.85;;;21.70;;
6173;SDS011;3120;48.796;9.796;2024-03-06T13:52:33;33.42;;;18.33;;
6173;SDS011;3120;48.796;9.796;2024-03-06T13:54:59;41.88;;;20.98;;
6173;SDS011;3120;48.796;9.796;2024-03-06T13:57:27;44.22;;;21.63;;
6173;SDS011;3120;48.796;9.796;2024-03-06T13:59:53;42.15;;;21.90;;
6173;SDS011;3120;48.796;9.796;2024-03-06T14:02:19;45.40;;;22.08;;
6173;SDS011;3120;48.796;9.796;2024-03-06T14:04:44;34.97;;;17.63;;
6173;SDS011;3120;48.796;9.796;2024-03-06T14:07:10;44.63;;;22.67;;
6173;SDS011;3120;48.796;9.796;2024-03-06T14:09:36;49.38;;;25.02;;
6173;SDS011;3120;48.796;9.796;2024-03-06T14:12:02;50.35;;;24.40;;
6173;SDS011;3120;48.796;9.796;2024-03-06T14:14:28;50.33;;;25.70;;
6173;SDS011;3120;48.796;9.796;2024-03-06T14:16:54;48.25;;;23.80;;
6173;SDS011;3120;48.796;9.796;2024-03-06T14:19:20;48.50;;;23.30;;
6173;SDS011;3120;48.796;9.796;2024-03-06T14:21:46;51.08;;;24.10;;
6173;SDS011;3120;48.796;9.796;2024-03-06T14:24:12;45.83;;;24.27;;
6173;SDS011;3120;48.796;9.796;2024-03-06T14:26:38;51.22;;;25.75;;
6173;SDS011;3120;48.796;9.796;2024-03-06T14:29:05;52.80;;;24.30;;
6173;SDS011;3120;48.796;9.796;2024-03-06T14:31:32;48.55;;;23.88;;
6173;SDS011;3120;48.796;9.796;2024-03-06T14:33:58;48.10;;;23.27;;
6173;SDS011;3120;48.796;9.796;2024-03-06T14:36:23;52.97;;;24.73;;
6173;SDS011;3120;48.796;9.796;2024-03-06T14:38:50;44.00;;;22.15;;
6173;SDS011;3120;48.796;9.796;2024-03-06T14:41:17;48.72;;;24.65;;
6173;SDS011;3120;48.796;9.796;2024-03-06T14:43:46;51.92;;;25.17;;
6173;SDS011;3120;48.796;9.796;2024-03-06T14:46:12;49.42;;;24.83;;
6173;SDS011;3120;48.796;9.796;2024-03-06T14:48:38;47.10;;;22.95;;
6173;SDS011;3120;48.796;9.796;2024-03-06T14:51:04;44.75;;;24.45;;
6173;SDS011;3120;48.796;9.796;2024-03-06T14:53:31;38.13;;;20.50;;
6173;SDS011;3120;48.796;9.796;2024-03-06T14:55:57;43.95;;;22.40;;
6173;SDS011;3120;48.796;9.796;2024-03-06T14:58:22;41.42;;;22.38;;
6173;SDS011;3120;48.796;9.796;2024-03-06T15:00:49;48.83;;;23.35;;
6173;SDS011;3120;48.796;9.796;2024-03-06T15:03:15;51.45;;;25.10;;
6173;SDS011;3120;48.796;9.796;2024-03-06T15:05:42;45.88;;;23.15;;
6173;SDS011;3120;48.796;9.796;2024-03-06T15:08:08;48.65;;;23.75;;
6173;SDS011;3120;48.796;9.796;2024-03-06T15:10:34;44.92;;;21.85;;
6173;SDS011;3120;48.796;9.796;2024-03-06T15:13:00;48.95;;;24.88;;
6173;SDS011;3120;48.796;9.796;2024-03-06T15:15:25;47.58;;;23.95;;
6173;SDS011;3120;48.796;9.796;2024-03-06T15:17:51;50.97;;;25.30;;
6173;SDS011;3120;48.796;9.796;2024-03-06T15:20:17;53.15;;;27.75;;
6173;SDS011;3120;48.796;9.796;2024-03-06T15:22:43;54.42;;;28.23;;
6173;SDS011;3120;48.796;9.796;2024-03-06T15:25:12;49.60;;;25.50;;
6173;SDS011;3120;48.796;9.796;2024-03-06T15:27:39;54.33;;;25.23;;
6173;SDS011;3120;48.796;9.796;2024-03-06T15:30:06;50.65;;;26.15;;
6173;SDS011;3120;48.796;9.796;2024-03-06T15:32:36;54.65;;;28.83;;
6173;SDS011;3120;48.796;9.796;2024-03-06T15:35:01;52.38;;;25.27;;
6173;SDS011;3120;48.796;9.796;2024-03-06T15:37:28;46.80;;;24.27;;
6173;SDS011;3120;48.796;9.796;2024-03-06T15:39:55;52.05;;;26.60;;
6173;SDS011;3120;48.796;9.796;2024-03-06T15:42:21;46.42;;;23.50;;
6173;SDS011;3120;48.796;9.796;2024-03-06T15:44:48;49.97;;;25.08;;
6173;SDS011;3120;48.796;9.796;2024-03-06T15:47:15;53.88;;;26.90;;
6173;SDS011;3120;48.796;9.796;2024-03-06T15:49:44;48.10;;;25.20;;
6173;SDS011;3120;48.796;9.796;2024-03-06T15:52:11;47.78;;;26.85;;
6173;SDS011;3120;48.796;9.796;2024-03-06T15:54:37;53.45;;;26.75;;
6173;SDS011;3120;48.796;9.796;2024-03-06T15:57:03;61.80;;;28.20;;
6173;SDS011;3120;48.796;9.796;2024-03-06T15:59:29;60.45;;;27.92;;
6173;SDS011;3120;48.796;9.796;2024-03-06T16:01:57;41.03;;;21.55;;
6173;SDS011;3120;48.796;9.796;2024-03-06T16:04:23;44.75;;;23.80;;
6173;SDS011;3120;48.796;9.796;2024-03-06T16:06:48;49.63;;;25.50;;
6173;SDS011;3120;48.796;9.796;2024-03-06T16:09:14;53.35;;;24.90;;
6173;SDS011;3120;48.796;9.796;2024-03-06T16:11:40;44.63;;;21.65;;
6173;SDS011;3120;48.796;9.796;2024-03-06T16:14:06;44.45;;;22.90;;
6173;SDS011;3120;48.796;9.796;2024-03-06T16:16:31;44.75;;;23.98;;
6173;SDS011;3120;48.796;9.796;2024-03-06T16:18:57;45.97;;;23.77;;
6173;SDS011;3120;48.796;9.796;2024-03-06T16:21:23;50.28;;;23.67;;
6173;SDS011;3120;48.796;9.796;2024-03-06T16:23:49;54.80;;;26.48;;
6173;SDS011;3120;48.796;9.796;2024-03-06T16:26:16;51.33;;;24.42;;
6173;SDS011;3120;48.796;9.796;2024-03-06T16:28:43;53.95;;;27.20;;
6173;SDS011;3120;48.796;9.796;2024-03-06T16:31:08;50.55;;;26.38;;
6173;SDS011;3120;48.796;9.796;2024-03-06T16:33:34;53.08;;;26.27;;
6173;SDS011;3120;48.796;9.796;2024-03-06T16:36:00;47.95;;;25.08;;
6173;SDS011;3120;48.796;9.796;2024-03-06T16:38:26;57.28;;;27.48;;
6173;SDS011;3120;48.796;9.796;2024-03-06T16:40:52;53.72;;;26.25;;
6173;SDS011;3120;48.796;9.796;2024-03-06T16:43:18;53.42;;;26.73;;
6173;SDS011;3120;48.796;9.796;2024-03-06T16:45:43;57.40;;;27.40;;
6173;SDS011;3120;48.796;9.796;2024-03-06T16:48:09;58.22;;;28.90;;
6173;SDS011;3120;48.796;9.796;2024-03-06T16:50:36;60.10;;;28.05;;
6173;SDS011;3120;48.796;9.796;2024-03-06T16:53:02;55.50;;;28.02;;
6173;SDS011;3120;48.796;9.796;2024-03-06T16:55:31;63.20;;;29.55;;
6173;SDS011;3120;48.796;9.796;2024-03-06T16:57:57;60.53;;;29.52;;
6173;SDS011;3120;48.796;9.796;2024-03-06T17:00:22;61.33;;;28.40;;
6173;SDS011;3120;48.796;9.796;2024-03-06T17:02:49;62.70;;;30.10;;
6173;SDS011;3120;48.796;9.796;2024-03-06T17:05:15;64.70;;;30.13;;
6173;SDS011;3120;48.796;9.796;2024-03-06T17:07:41;69.68;;;29.50;;
6173;SDS011;3120;48.796;9.796;2024-03-06T17:10:10;55.08;;;27.27;;